Time;durP1;ratioP1;P1;durP2;ratioP2;P2;SDS_P1;SDS_P2;PMS_P1;PMS_P2;Temp;Humidity;BMP_temperature;BMP_pressure;BME280_temperature;BME280_humidity;BME280_pressure;Samples;Min_cycle;Max_cycle;Signal;HPM_P1;HPM_P2
2023/02/07 00:01:59;;;;;;;;;;;;;;;;;;4421691;32;19941;-70
2023/02/07 00:04:25;;;;;;;;;;;;;;;;;;4421287;32;19937;-70
2023/02/07 00:06:50;;;;;;;;;;;;;;;;;;4422430;32;19957;-70
2023/02/07 00:09:16;;;;;;;;;;;;;;;;;;4421865;32;19941;-70
2023/02/07 00:11:42;;;;;;;;;;;;;;;;;;4421011;32;19933;-71
2023/02/07 00:14:07;;;;;;;;;;;;;;;;;;4423929;32;19965;-70
2023/02/07 00:16:32;;;;;;;;;;;;;;;;;;4422450;32;19941;-71
2023/02/07 00:18:57;;;;;;;;;;;;;;;;;;4421021;32;19988;-71
2023/02/07 00:21:22;;;;;;;;;;;;;;;;;;4422745;32;19929;-71
2023/02/07 00:23:47;;;;;;;;;;;;;;;;;;4422537;32;19933;-71
2023/02/07 00:26:12;;;;;;;;;;;;;;;;;;4422269;32;19957;-70
2023/02/07 00:28:38;;;;;;;;;;;;;;;;;;4421355;32;19952;-71
2023/02/07 00:31:03;;;;;;;;;;;;;;;;;;4422535;32;19992;-71
2023/02/07 00:33:28;;;;;;;;;;;;;;;;;;4421988;32;19970;-71
2023/02/07 00:35:53;;;;;;;;;;;;;;;;;;4422952;32;20353;-70
2023/02/07 00:38:18;;;;;;;;;;;;;;;;;;4422528;32;19961;-71
2023/02/07 00:40:43;;;;;;;;;;;;;;;;;;4422740;32;19934;-71
2023/02/07 00:43:08;;;;;;;;;;;;;;;;;;4422960;32;19933;-70
2023/02/07 00:45:33;;;;;;;;;;;;;;;;;;4422415;32;19956;-71
2023/02/07 00:47:58;;;;;;;;;;;;;;;;;;4420574;32;19941;-71
2023/02/07 00:50:24;;;;;;;;;;;;;;;;;;4422719;32;19945;-71
2023/02/07 00:52:49;;;;;;;;;;;;;;;;;;4421904;32;19997;-70
2023/02/07 00:55:14;;;;;;;;;;;;;;;;;;4422238;32;19970;-70
2023/02/07 00:57:39;;;;;;;;;;;;;;;;;;4420908;32;20315;-72
2023/02/07 01:00:04;;;;;;;;;;;;;;;;;;4420530;32;19951;-71
2023/02/07 01:02:29;;;;;;;;;;;;;;;;;;4421682;32;19933;-70
2023/02/07 01:04:54;;;;;;;;;;;;;;;;;;4423025;32;19941;-71
2023/02/07 01:07:21;;;;;;;;;;;;;;;;;;4423046;32;19949;-71
2023/02/07 01:09:46;;;;;;;;;;;;;;;;;;4421032;32;20029;-71
2023/02/07 01:12:12;;;;;;;;;;;;;;;;;;4422479;32;19941;-71
2023/02/07 01:14:37;;;;;;;;;;;;;;;;;;4420211;32;20066;-71
2023/02/07 01:17:02;;;;;;;;;;;;;;;;;;4421821;32;19937;-70
2023/02/07 01:19:27;;;;;;;;;;;;;;;;;;4420157;32;19968;-70
2023/02/07 01:21:52;;;;;;;;;;;;;;;;;;4421568;32;20012;-71
2023/02/07 01:24:17;;;;;;;;;;;;;;;;;;4421788;32;19973;-71
2023/02/07 01:26:42;;;;;;;;;;;;;;;;;;4421666;32;19989;-70
2023/02/07 01:29:07;;;;;;;;;;;;;;;;;;4422524;32;19989;-70
2023/02/07 01:31:33;;;;;;;;;;;;;;;;;;4421971;32;19945;-70
2023/02/07 01:33:58;;;;;;;;;;;;;;;;;;4420073;32;19937;-70
2023/02/07 01:36:23;;;;;;;;;;;;;;;;;;4421657;32;20255;-70
2023/02/07 01:38:48;;;;;;;;;;;;;;;;;;4419772;32;20303;-70
2023/02/07 01:41:13;;;;;;;;;;;;;;;;;;4422770;32;20318;-70
2023/02/07 01:43:39;;;;;;;;;;;;;;;;;;4422975;32;20321;-71
2023/02/07 01:46:04;;;;;;;;;;;;;;;;;;4419848;32;19947;-72
2023/02/07 01:48:29;;;;;;;;;;;;;;;;;;4420947;32;19937;-71
2023/02/07 01:50:54;;;;;;;;;;;;;;;;;;4421918;32;19937;-71
2023/02/07 01:53:19;;;;;;;;;;;;;;;;;;4420425;32;19952;-71
2023/02/07 01:55:44;;;;;;;;;;;;;;;;;;4419747;32;20287;-70
2023/02/07 01:58:10;;;;;;;;;;;;;;;;;;4421399;32;20212;-71
2023/02/07 02:00:35;;;;;;;;;;;;;;;;;;4420746;32;20316;-71
2023/02/07 02:03:00;;;;;;;;;;;;;;;;;;4421287;32;19972;-70
2023/02/07 02:05:25;;;;;;;;;;;;;;;;;;4421351;32;20289;-71
2023/02/07 02:07:50;;;;;;;;;;;;;;;;;;4422394;32;19994;-71
2023/02/07 02:10:15;;;;;;;;;;;;;;;;;;4422026;32;19936;-70
2023/02/07 02:12:40;;;;;;;;;;;;;;;;;;4422579;32;19934;-70
2023/02/07 02:15:06;;;;;;;;;;;;;;;;;;4419575;32;19964;-70
2023/02/07 02:17:31;;;;;;;;;;;;;;;;;;4421162;32;19952;-71
2023/02/07 02:19:56;;;;;;;;;;;;;;;;;;4419351;32;20394;-71
2023/02/07 02:22:21;;;;;;;;;;;;;;;;;;4420244;32;19941;-71
2023/02/07 02:24:46;;;;;;;;;;;;;;;;;;4420285;32;19937;-71
2023/02/07 02:27:11;;;;;;;;;;;;;;;;;;4419384;32;19937;-70
2023/02/07 02:29:36;;;;;;;;;;;;;;;;;;4419145;32;19961;-70
2023/02/07 02:32:01;;;;;;;;;;;;;;;;;;4421683;32;19941;-70
2023/02/07 02:34:26;;;;;;;;;;;;;;;;;;4421426;32;19948;-70
2023/02/07 02:36:52;;;;;;;;;;;;;;;;;;4423009;32;20273;-71
2023/02/07 02:39:17;;;;;;;;;;;;;;;;;;4419277;32;19933;-71
2023/02/07 02:41:42;;;;;;;;;;;;;;;;;;4420317;32;19956;-70
2023/02/07 02:44:07;;;;;;;;;;;;;;;;;;4421966;32;19961;-71
2023/02/07 02:46:33;;;;;;;;;;;;;;;;;;4422593;32;19938;-71
2023/02/07 02:48:58;;;;;;;;;;;;;;;;;;4420917;32;19975;-71
2023/02/07 02:51:23;;;;;;;;;;;;;;;;;;4420798;32;20224;-70
2023/02/07 02:53:48;;;;;;;;;;;;;;;;;;4419237;32;20352;-70
2023/02/07 02:56:14;;;;;;;;;;;;;;;;;;4421092;32;19937;-70
2023/02/07 02:58:39;;;;;;;;;;;;;;;;;;4422181;32;19937;-71
2023/02/07 03:01:04;;;;;;;;;;;;;;;;;;4419911;32;19940;-70
2023/02/07 03:03:29;;;;;;;;;;;;;;;;;;4420474;32;19941;-71
2023/02/07 03:05:54;;;;;;;;;;;;;;;;;;4420250;32;19948;-71
2023/02/07 03:08:19;;;;;;;;;;;;;;;;;;4420944;32;20320;-71
2023/02/07 03:10:44;;;;;;;;;;;;;;;;;;4420210;32;20345;-71
2023/02/07 03:13:10;;;;;;;;;;;;;;;;;;4420672;32;20274;-70
2023/02/07 03:15:35;;;;;;;;;;;;;;;;;;4421716;32;20353;-70
2023/02/07 03:18:00;;;;;;;;;;;;;;;;;;4420731;32;19937;-71
2023/02/07 03:20:25;;;;;;;;;;;;;;;;;;4419006;32;19947;-71
2023/02/07 03:22:50;;;;;;;;;;;;;;;;;;4424602;32;19941;-70
2023/02/07 03:25:15;;;;;;;;;;;;;;;;;;4422960;32;19985;-70
2023/02/07 03:27:40;;;;;;;;;;;;;;;;;;4425172;32;19945;-71
2023/02/07 03:30:05;;;;;;;;;;;;;;;;;;4423273;32;19937;-70
2023/02/07 03:32:30;;;;;;;;;;;;;;;;;;4424728;32;19951;-71
2023/02/07 03:34:56;;;;;;;;;;;;;;;;;;4424756;32;19952;-70
2023/02/07 03:37:21;;;;;;;;;;;;;;;;;;4424173;32;19946;-70
2023/02/07 03:39:46;;;;;;;;;;;;;;;;;;4422880;32;19944;-71
2023/02/07 03:42:11;;;;;;;;;;;;;;;;;;4423127;32;19957;-70
2023/02/07 03:44:36;;;;;;;;;;;;;;;;;;4424090;32;19933;-70
2023/02/07 03:47:01;;;;;;;;;;;;;;;;;;4424719;32;19994;-71
2023/02/07 03:49:26;;;;;;;;;;;;;;;;;;4422952;32;19970;-71
2023/02/07 03:51:52;;;;;;;;;;;;;;;;;;4422767;32;19957;-71
2023/02/07 03:54:17;;;;;;;;;;;;;;;;;;4421789;32;19937;-70
2023/02/07 03:56:42;;;;;;;;;;;;;;;;;;4423219;32;20288;-71
2023/02/07 03:59:07;;;;;;;;;;;;;;;;;;4422819;32;19968;-69
2023/02/07 04:01:33;;;;;;;;;;;;;;;;;;4425084;32;19971;-70
2023/02/07 04:03:58;;;;;;;;;;;;;;;;;;4422807;32;19941;-71
2023/02/07 04:06:24;;;;;;;;;;;;;;;;;;4422752;32;19956;-71
2023/02/07 04:08:49;;;;;;;;;;;;;;;;;;4424558;32;19937;-71
2023/02/07 04:11:14;;;;;;;;;;;;;;;;;;4423631;32;19941;-71
2023/02/07 04:13:39;;;;;;;;;;;;;;;;;;4423012;32;20303;-71
2023/02/07 04:16:04;;;;;;;;;;;;;;;;;;4423991;32;20303;-71
2023/02/07 04:18:29;;;;;;;;;;;;;;;;;;4423871;32;20356;-70
2023/02/07 04:20:54;;;;;;;;;;;;;;;;;;4422961;32;19936;-71
2023/02/07 04:23:19;;;;;;;;;;;;;;;;;;4423976;32;19937;-71
2023/02/07 04:25:44;;;;;;;;;;;;;;;;;;4423084;32;19937;-71
2023/02/07 04:28:09;;;;;;;;;;;;;;;;;;4421116;32;19979;-70
2023/02/07 04:30:35;;;;;;;;;;;;;;;;;;4421094;32;19941;-70
2023/02/07 04:33:00;;;;;;;;;;;;;;;;;;4422617;32;19933;-70
2023/02/07 04:35:25;;;;;;;;;;;;;;;;;;4422747;32;19941;-70
2023/02/07 04:37:50;;;;;;;;;;;;;;;;;;4422204;32;19941;-71
2023/02/07 04:40:15;;;;;;;;;;;;;;;;;;4422412;32;20252;-71
2023/02/07 04:42:40;;;;;;;;;;;;;;;;;;4422430;32;19982;-71
2023/02/07 04:45:05;;;;;;;;;;;;;;;;;;4420745;32;19941;-72
2023/02/07 04:47:30;;;;;;;;;;;;;;;;;;4422871;32;19949;-71
2023/02/07 04:49:55;;;;;;;;;;;;;;;;;;4422175;32;20283;-71
2023/02/07 04:52:20;;;;;;;;;;;;;;;;;;4421098;32;20318;-71
2023/02/07 04:54:46;;;;;;;;;;;;;;;;;;4422099;32;20020;-70
2023/02/07 04:57:11;;;;;;;;;;;;;;;;;;4420999;32;20285;-71
2023/02/07 04:59:36;;;;;;;;;;;;;;;;;;4424035;32;19937;-71
2023/02/07 05:02:01;;;;;;;;;;;;;;;;;;4424185;32;19967;-71
2023/02/07 05:04:26;;;;;;;;;;;;;;;;;;4421983;32;20315;-71
2023/02/07 05:06:51;;;;;;;;;;;;;;;;;;4423651;32;19933;-71
2023/02/07 05:09:16;;;;;;;;;;;;;;;;;;4423201;32;19972;-71
2023/02/07 05:11:41;;;;;;;;;;;;;;;;;;4422572;32;19955;-70
2023/02/07 05:14:06;;;;;;;;;;;;;;;;;;4420955;32;20031;-70
2023/02/07 05:16:32;;;;;;;;;;;;;;;;;;4424253;32;20311;-70
2023/02/07 05:18:57;;;;;;;;;;;;;;;;;;4422081;32;19983;-70
2023/02/07 05:21:22;;;;;;;;;;;;;;;;;;4423793;32;19933;-70
2023/02/07 05:23:47;;;;;;;;;;;;;;;;;;4422921;32;19969;-71
2023/02/07 05:26:13;;;;;;;;;;;;;;;;;;4420947;32;19966;-70
2023/02/07 05:28:38;;;;;;;;;;;;;;;;;;4427761;32;19948;-71
2023/02/07 05:31:04;;;;;;;;;;;;;;;;;;4427289;32;19989;-70
2023/02/07 05:33:29;;;;;;;;;;;;;;;;;;4421977;32;19992;-70
2023/02/07 05:35:54;;;;;;;;;;;;;;;;;;4421780;32;19941;-70
2023/02/07 05:38:19;;;;;;;;;;;;;;;;;;4421986;32;20301;-71
2023/02/07 05:40:44;;;;;;;;;;;;;;;;;;4420131;32;19937;-70
2023/02/07 05:43:09;;;;;;;;;;;;;;;;;;4422354;32;20040;-69
2023/02/07 05:45:34;;;;;;;;;;;;;;;;;;4419607;32;20349;-70
2023/02/07 05:47:59;;;;;;;;;;;;;;;;;;4421969;32;19951;-71
2023/02/07 05:50:24;;;;;;;;;;;;;;;;;;4423108;32;19993;-70
2023/02/07 05:52:50;;;;;;;;;;;;;;;;;;4421383;32;20288;-71
2023/02/07 05:55:15;;;;;;;;;;;;;;;;;;4422882;32;20005;-70
2023/02/07 05:57:40;;;;;;;;;;;;;;;;;;4420089;32;19940;-70
2023/02/07 06:00:05;;;;;;;;;;;;;;;;;;4419836;32;19961;-71
2023/02/07 06:02:30;;;;;;;;;;;;;;;;;;4419754;32;19976;-70
2023/02/07 06:04:55;;;;;;;;;;;;;;;;;;4423184;32;19947;-71
2023/02/07 06:07:20;;;;;;;;;;;;;;;;;;4421524;32;19988;-70
2023/02/07 06:09:45;;;;;;;;;;;;;;;;;;4421027;32;19937;-70
2023/02/07 06:12:10;;;;;;;;;;;;;;;;;;4421264;32;19975;-69
2023/02/07 06:14:36;;;;;;;;;;;;;;;;;;4419526;32;19948;-71
2023/02/07 06:17:01;;;;;;;;;;;;;;;;;;4420492;32;19952;-70
2023/02/07 06:19:26;;;;;;;;;;;;;;;;;;4421290;32;20067;-70
2023/02/07 06:21:51;;;;;;;;;;;;;;;;;;4420717;32;19948;-70
2023/02/07 06:24:16;;;;;;;;;;;;;;;;;;4420596;32;19996;-69
2023/02/07 06:26:41;;;;;;;;;;;;;;;;;;4413441;32;19933;-70
2023/02/07 06:29:06;;;;;;;;;;;;;;;;;;4418137;32;20019;-70
2023/02/07 06:31:31;;;;;;;;;;;;;;;;;;4411406;32;19951;-70
2023/02/07 06:33:57;;;;;;;;;;;;;;;;;;4420556;32;19965;-70
2023/02/07 06:36:22;;;;;;;;;;;;;;;;;;4419001;32;19941;-69
2023/02/07 06:38:47;;;;;;;;;;;;;;;;;;4413227;32;19992;-69
2023/02/07 06:41:13;;;;;;;;;;;;;;;;;;4419856;32;19943;-70
2023/02/07 06:43:38;;;;;;;;;;;;;;;;;;4422050;32;19942;-70
2023/02/07 06:46:03;;;;;;;;;;;;;;;;;;4420817;32;19956;-69
2023/02/07 06:48:28;;;;;;;;;;;;;;;;;;4420586;32;19952;-72
2023/02/07 06:50:53;;;;;;;;;;;;;;;;;;4419183;32;20322;-70
2023/02/07 06:53:18;;;;;;;;;;;;;;;;;;4410729;32;19945;-69
2023/02/07 06:55:43;;;;;;;;;;;;;;;;;;4406957;32;19980;-71
2023/02/07 06:58:08;;;;;;;;;;;;;;;;;;4408668;32;19941;-69
2023/02/07 07:00:34;;;;;;;;;;;;;;;;;;4408429;32;20296;-69
2023/02/07 07:03:00;;;;;;;;;;;;;;;;;;4408905;32;20262;-70
2023/02/07 07:05:25;;;;;;;;;;;;;;;;;;4408788;32;19937;-69
2023/02/07 07:07:50;;;;;;;;;;;;;;;;;;4408177;32;19941;-69
2023/02/07 07:10:15;;;;;;;;;;;;;;;;;;4406592;32;19951;-70
2023/02/07 07:12:40;;;;;;;;;;;;;;;;;;4406764;32;19956;-69
2023/02/07 07:15:05;;;;;;;;;;;;;;;;;;4407994;32;20319;-70
2023/02/07 07:17:30;;;;;;;;;;;;;;;;;;4407752;32;19942;-70
2023/02/07 07:19:56;;;;;;;;;;;;;;;;;;4407494;32;19937;-69
2023/02/07 07:22:21;;;;;;;;;;;;;;;;;;4409243;32;19938;-71
2023/02/07 07:24:46;;;;;;;;;;;;;;;;;;4413481;32;20087;-69
2023/02/07 07:27:11;;;;;;;;;;;;;;;;;;4422706;32;19941;-71
2023/02/07 07:29:36;;;;;;;;;;;;;;;;;;4422982;32;19999;-69
2023/02/07 07:32:01;;;;;;;;;;;;;;;;;;4422128;32;19948;-70
2023/02/07 07:34:27;;;;;;;;;;;;;;;;;;4422812;32;19970;-70
2023/02/07 07:36:55;;;;;;;;;;;;;;;;;;4422444;32;19967;-70
2023/02/07 07:39:20;;;;;;;;;;;;;;;;;;4413181;32;20023;-71
2023/02/07 07:41:45;;;;;;;;;;;;;;;;;;4406963;32;19933;-70
2023/02/07 07:44:10;;;;;;;;;;;;;;;;;;4408143;32;19944;-70
2023/02/07 07:46:35;;;;;;;;;;;;;;;;;;4408679;32;19938;-69
2023/02/07 07:49:01;;;;;;;;;;;;;;;;;;4406882;32;19941;-71
2023/02/07 07:51:26;;;;;;;;;;;;;;;;;;4410435;32;20020;-69
2023/02/07 07:53:51;;;;;;;;;;;;;;;;;;4424741;32;19945;-70
2023/02/07 07:56:16;;;;;;;;;;;;;;;;;;4423990;32;19941;-70
2023/02/07 07:58:41;;;;;;;;;;;;;;;;;;4417376;32;19977;-70
2023/02/07 08:01:06;;;;;;;;;;;;;;;;;;4414951;32;19941;-70
2023/02/07 08:03:31;;;;;;;;;;;;;;;;;;4421095;32;19936;-70
2023/02/07 08:05:57;;;;;;;;;;;;;;;;;;4423221;32;19977;-69
2023/02/07 08:08:22;;;;;;;;;;;;;;;;;;4421508;32;19933;-69
2023/02/07 08:10:47;;;;;;;;;;;;;;;;;;4420908;32;20348;-70
2023/02/07 08:13:12;;;;;;;;;;;;;;;;;;4422510;32;20330;-70
2023/02/07 08:15:38;;;;;;;;;;;;;;;;;;4407708;32;19945;-71
2023/02/07 08:18:03;;;;;;;;;;;;;;;;;;4419741;32;20282;-69
2023/02/07 08:20:28;;;;;;;;;;;;;;;;;;4423415;32;19963;-70
2023/02/07 08:22:53;;;;;;;;;;;;;;;;;;4422241;32;19933;-69
2023/02/07 08:25:18;;;;;;;;;;;;;;;;;;4422138;32;19934;-69
2023/02/07 08:27:43;;;;;;;;;;;;;;;;;;4423541;32;19972;-71
2023/02/07 08:30:08;;;;;;;;;;;;;;;;;;4423519;32;19937;-70
2023/02/07 08:32:33;;;;;;;;;;;;;;;;;;4421835;32;19997;-70
2023/02/07 08:34:59;;;;;;;;;;;;;;;;;;4424089;32;19933;-71
2023/02/07 08:37:24;;;;;;;;;;;;;;;;;;4422714;32;19993;-70
2023/02/07 08:39:51;;;;;;;;;;;;;;;;;;4423261;32;20242;-68
2023/02/07 08:42:16;;;;;;;;;;;;;;;;;;4423911;32;19945;-69
2023/02/07 08:44:42;;;;;;;;;;;;;;;;;;4421071;32;20224;-69
2023/02/07 08:47:07;;;;;;;;;;;;;;;;;;4422948;32;19961;-69
2023/02/07 08:49:32;;;;;;;;;;;;;;;;;;4421856;32;20228;-69
2023/02/07 08:51:57;;;;;;;;;;;;;;;;;;4423386;32;19948;-69
2023/02/07 08:54:22;;;;;;;;;;;;;;;;;;4421875;32;20317;-69
2023/02/07 08:56:47;;;;;;;;;;;;;;;;;;4421591;32;20313;-70
2023/02/07 08:59:12;;;;;;;;;;;;;;;;;;4421383;32;19933;-70
2023/02/07 09:01:37;;;;;;;;;;;;;;;;;;4423076;32;19937;-70
2023/02/07 09:04:03;;;;;;;;;;;;;;;;;;4420248;32;19933;-70
2023/02/07 09:06:28;;;;;;;;;;;;;;;;;;4421230;32;19983;-70
2023/02/07 09:08:53;;;;;;;;;;;;;;;;;;4421495;32;20361;-70
2023/02/07 09:11:18;;;;;;;;;;;;;;;;;;4422588;32;19956;-70
2023/02/07 09:13:44;;;;;;;;;;;;;;;;;;4423428;32;19967;-69
2023/02/07 09:16:09;;;;;;;;;;;;;;;;;;4419978;32;20360;-69
2023/02/07 09:18:34;;;;;;;;;;;;;;;;;;4420624;32;19932;-68
2023/02/07 09:21:00;;;;;;;;;;;;;;;;;;4420086;32;19947;-70
2023/02/07 09:23:25;;;;;;;;;;;;;;;;;;4422824;32;19937;-70
2023/02/07 09:25:51;;;;;;;;;;;;;;;;;;4420136;32;20031;-70
2023/02/07 09:28:16;;;;;;;;;;;;;;;;;;4423072;32;19970;-70
2023/02/07 09:30:41;;;;;;;;;;;;;;;;;;4420195;32;20319;-69
2023/02/07 09:33:06;;;;;;;;;;;;;;;;;;4422984;32;20402;-71
2023/02/07 09:35:31;;;;;;;;;;;;;;;;;;4421162;32;19975;-70
2023/02/07 09:37:57;;;;;;;;;;;;;;;;;;4415001;32;20012;-70
2023/02/07 09:40:22;;;;;;;;;;;;;;;;;;4421250;32;19967;-70
2023/02/07 09:42:47;;;;;;;;;;;;;;;;;;4420304;32;20396;-70
2023/02/07 09:45:12;;;;;;;;;;;;;;;;;;4420868;32;19933;-69
2023/02/07 09:47:37;;;;;;;;;;;;;;;;;;4421069;32;19968;-70
2023/02/07 09:50:03;;;;;;;;;;;;;;;;;;4420774;32;20010;-70
2023/02/07 09:52:28;;;;;;;;;;;;;;;;;;4422162;32;20024;-70
2023/02/07 09:54:53;;;;;;;;;;;;;;;;;;4421137;32;19948;-70
2023/02/07 09:57:18;;;;;;;;;;;;;;;;;;4421268;32;19933;-71
2023/02/07 09:59:43;;;;;;;;;;;;;;;;;;4422589;32;19934;-69
2023/02/07 10:02:08;;;;;;;;;;;;;;;;;;4422632;32;20339;-69
2023/02/07 10:04:33;;;;;;;;;;;;;;;;;;4421521;32;19933;-70
2023/02/07 10:06:58;;;;;;;;;;;;;;;;;;4420721;32;19941;-70
2023/02/07 10:09:24;;;;;;;;;;;;;;;;;;4420332;32;19933;-70
2023/02/07 10:11:49;;;;;;;;;;;;;;;;;;4421727;32;19961;-69
2023/02/07 10:14:14;;;;;;;;;;;;;;;;;;4421599;32;19948;-70
2023/02/07 10:16:39;;;;;;;;;;;;;;;;;;4419137;32;19984;-70
2023/02/07 10:19:06;;;;;;;;;;;;;;;;;;4419158;32;19937;-70
2023/02/07 10:21:31;;;;;;;;;;;;;;;;;;4419558;32;19932;-70
2023/02/07 10:23:56;;;;;;;;;;;;;;;;;;4419366;32;19971;-70
2023/02/07 10:26:21;;;;;;;;;;;;;;;;;;4420734;32;19941;-70
2023/02/07 10:28:46;;;;;;;;;;;;;;;;;;4418963;32;20310;-71
2023/02/07 10:31:12;;;;;;;;;;;;;;;;;;4421195;32;19945;-70
2023/02/07 10:33:37;;;;;;;;;;;;;;;;;;4421850;32;20335;-69
2023/02/07 10:36:02;;;;;;;;;;;;;;;;;;4419979;32;19937;-69
2023/02/07 10:38:27;;;;;;;;;;;;;;;;;;4419402;32;20013;-70
2023/02/07 10:40:52;;;;;;;;;;;;;;;;;;4422150;32;19938;-69
2023/02/07 10:43:17;;;;;;;;;;;;;;;;;;4418848;32;19980;-69
2023/02/07 10:45:42;;;;;;;;;;;;;;;;;;4420070;32;20262;-72
2023/02/07 10:48:07;;;;;;;;;;;;;;;;;;4420517;32;20350;-70
2023/02/07 10:50:32;;;;;;;;;;;;;;;;;;4420058;32;19951;-69
2023/02/07 10:52:57;;;;;;;;;;;;;;;;;;4420697;32;20020;-70
2023/02/07 10:55:23;;;;;;;;;;;;;;;;;;4419388;32;19941;-69
2023/02/07 10:57:48;;;;;;;;;;;;;;;;;;4419389;32;19948;-69
2023/02/07 11:00:13;;;;;;;;;;;;;;;;;;4420345;32;19933;-69
2023/02/07 11:02:38;;;;;;;;;;;;;;;;;;4421772;32;19969;-70
2023/02/07 11:05:04;;;;;;;;;;;;;;;;;;4420781;32;19995;-69
2023/02/07 11:07:29;;;;;;;;;;;;;;;;;;4420311;32;19989;-69
2023/02/07 11:09:54;;;;;;;;;;;;;;;;;;4419819;32;19937;-69
2023/02/07 11:12:19;;;;;;;;;;;;;;;;;;4417373;32;19951;-69
2023/02/07 11:14:45;;;;;;;;;;;;;;;;;;4405060;32;19972;-69
2023/02/07 11:17:10;;;;;;;;;;;;;;;;;;4404453;32;19938;-69
2023/02/07 11:19:35;;;;;;;;;;;;;;;;;;4416800;32;19970;-69
2023/02/07 11:22:00;;;;;;;;;;;;;;;;;;4420092;32;19949;-69
2023/02/07 11:24:27;;;;;;;;;;;;;;;;;;4418124;32;19945;-70
2023/02/07 11:26:52;;;;;;;;;;;;;;;;;;4418665;32;19962;-70
2023/02/07 11:29:18;;;;;;;;;;;;;;;;;;4421035;32;19999;-70
2023/02/07 11:31:43;;;;;;;;;;;;;;;;;;4420557;32;19956;-70
2023/02/07 11:34:08;;;;;;;;;;;;;;;;;;4419029;32;20264;-71
2023/02/07 11:36:33;;;;;;;;;;;;;;;;;;4420486;32;19992;-70
2023/02/07 11:38:58;;;;;;;;;;;;;;;;;;4419628;32;19941;-70
2023/02/07 11:41:24;;;;;;;;;;;;;;;;;;4421767;32;19933;-70
2023/02/07 11:43:49;;;;;;;;;;;;;;;;;;4423499;32;20266;-69
2023/02/07 11:46:14;;;;;;;;;;;;;;;;;;4423068;32;19974;-70
2023/02/07 11:48:39;;;;;;;;;;;;;;;;;;4422007;32;19970;-70
2023/02/07 11:51:05;;;;;;;;;;;;;;;;;;4421160;32;20355;-71
2023/02/07 11:53:30;;;;;;;;;;;;;;;;;;4422712;32;19937;-69
2023/02/07 11:55:55;;;;;;;;;;;;;;;;;;4423955;32;19997;-70
2023/02/07 11:58:20;;;;;;;;;;;;;;;;;;4422560;32;19937;-71
2023/02/07 12:00:45;;;;;;;;;;;;;;;;;;4421666;32;20311;-70
2023/02/07 12:03:11;;;;;;;;;;;;;;;;;;4422212;32;19945;-70
2023/02/07 12:05:36;;;;;;;;;;;;;;;;;;4422774;32;19970;-71
2023/02/07 12:08:01;;;;;;;;;;;;;;;;;;4423278;32;19996;-72
2023/02/07 12:10:27;;;;;;;;;;;;;;;;;;4422479;32;19976;-70
2023/02/07 12:12:52;;;;;;;;;;;;;;;;;;4423062;32;19988;-71
2023/02/07 12:15:17;;;;;;;;;;;;;;;;;;4421699;32;20307;-71
2023/02/07 12:17:42;;;;;;;;;;;;;;;;;;4421159;32;20365;-71
2023/02/07 12:20:09;;;;;;;;;;;;;;;;;;4422679;32;20303;-71
2023/02/07 12:22:34;;;;;;;;;;;;;;;;;;4422393;32;19993;-70
2023/02/07 12:24:59;;;;;;;;;;;;;;;;;;4422551;32;19933;-71
2023/02/07 12:27:25;;;;;;;;;;;;;;;;;;4422113;32;19947;-71
2023/02/07 12:29:50;;;;;;;;;;;;;;;;;;4422287;32;19951;-71
2023/02/07 12:32:15;;;;;;;;;;;;;;;;;;4422205;32;20307;-72
2023/02/07 12:34:40;;;;;;;;;;;;;;;;;;4422542;32;19992;-71
2023/02/07 12:37:05;;;;;;;;;;;;;;;;;;4421811;32;19941;-70
2023/02/07 12:39:31;;;;;;;;;;;;;;;;;;4422057;32;19941;-71
2023/02/07 12:41:56;;;;;;;;;;;;;;;;;;4422856;32;20269;-71
2023/02/07 12:44:21;;;;;;;;;;;;;;;;;;4423753;32;20375;-70
2023/02/07 12:46:46;;;;;;;;;;;;;;;;;;4420541;32;19989;-71
2023/02/07 12:49:12;;;;;;;;;;;;;;;;;;4422179;32;19947;-71
2023/02/07 12:51:37;;;;;;;;;;;;;;;;;;4423711;32;20004;-71
2023/02/07 12:54:02;;;;;;;;;;;;;;;;;;4422061;32;20281;-71
2023/02/07 12:56:27;;;;;;;;;;;;;;;;;;4422229;32;19956;-70
2023/02/07 12:58:52;;;;;;;;;;;;;;;;;;4421682;32;19937;-72
2023/02/07 13:01:17;;;;;;;;;;;;;;;;;;4420252;32;20323;-72
2023/02/07 13:03:43;;;;;;;;;;;;;;;;;;4420591;32;19947;-72
2023/02/07 13:06:08;;;;;;;;;;;;;;;;;;4422457;32;19933;-70
2023/02/07 13:08:34;;;;;;;;;;;;;;;;;;4421542;32;20311;-71
2023/02/07 13:10:59;;;;;;;;;;;;;;;;;;4423244;32;19940;-71
2023/02/07 13:13:24;;;;;;;;;;;;;;;;;;4421721;32;20303;-70
2023/02/07 13:15:49;;;;;;;;;;;;;;;;;;4421395;32;19945;-71
2023/02/07 13:18:14;;;;;;;;;;;;;;;;;;4419590;32;20354;-72
2023/02/07 13:20:39;;;;;;;;;;;;;;;;;;4419084;32;19948;-70
2023/02/07 13:23:08;;;;;;;;;;;;;;;;;;4422672;32;20303;-72
2023/02/07 13:25:33;;;;;;;;;;;;;;;;;;4422061;32;19949;-72
2023/02/07 13:27:58;;;;;;;;;;;;;;;;;;4422909;32;19948;-72
2023/02/07 13:30:24;;;;;;;;;;;;;;;;;;4420789;32;20250;-71
2023/02/07 13:32:49;;;;;;;;;;;;;;;;;;4421072;32;20278;-71
2023/02/07 13:35:14;;;;;;;;;;;;;;;;;;4419802;32;20278;-70
2023/02/07 13:37:40;;;;;;;;;;;;;;;;;;4421520;32;19979;-71
2023/02/07 13:40:05;;;;;;;;;;;;;;;;;;4422133;32;19940;-70
2023/02/07 13:42:30;;;;;;;;;;;;;;;;;;4420197;32;20300;-70
2023/02/07 13:44:55;;;;;;;;;;;;;;;;;;4421835;32;19933;-71
2023/02/07 13:47:20;;;;;;;;;;;;;;;;;;4420662;32;19933;-71
2023/02/07 13:49:45;;;;;;;;;;;;;;;;;;4420363;32;19975;-71
2023/02/07 13:52:10;;;;;;;;;;;;;;;;;;4421093;32;19970;-71
2023/02/07 13:54:35;;;;;;;;;;;;;;;;;;4420301;32;19941;-71
2023/02/07 13:59:45;;;;;;;;;;;;;;;;;;4421686;32;20369;-70
2023/02/07 14:02:10;;;;;;;;;;;;;;;;;;4421823;32;19949;-72
2023/02/07 14:04:35;;;;;;;;;;;;;;;;;;4421212;32;19976;-71
2023/02/07 14:07:01;;;;;;;;;;;;;;;;;;4420803;32;19951;-71
2023/02/07 14:09:27;;;;;;;;;;;;;;;;;;4420999;32;19940;-71
2023/02/07 14:11:52;;;;;;;;;;;;;;;;;;4419204;32;20014;-72
2023/02/07 14:14:17;;;;;;;;;;;;;;;;;;4419143;32;19976;-71
2023/02/07 14:16:42;;;;;;;;;;;;;;;;;;4419208;32;20334;-72
2023/02/07 14:19:08;;;;;;;;;;;;;;;;;;4422363;32;19972;-71
2023/02/07 14:21:33;;;;;;;;;;;;;;;;;;4422927;32;19933;-70
2023/02/07 14:23:58;;;;;;;;;;;;;;;;;;4421068;32;19969;-71
2023/02/07 14:26:23;;;;;;;;;;;;;;;;;;4419460;32;19957;-71
2023/02/07 14:28:48;;;;;;;;;;;;;;;;;;4420211;32;20303;-71
2023/02/07 14:31:13;;;;;;;;;;;;;;;;;;4419878;32;19961;-71
2023/02/07 14:33:38;;;;;;;;;;;;;;;;;;4420958;32;19941;-71
2023/02/07 14:36:03;;;;;;;;;;;;;;;;;;4421982;32;19932;-71
2023/02/07 14:38:28;;;;;;;;;;;;;;;;;;4421376;32;19933;-72
2023/02/07 14:40:56;;;;;;;;;;;;;;;;;;4420888;32;19948;-71
2023/02/07 14:43:21;;;;;;;;;;;;;;;;;;4418958;32;20236;-71
2023/02/07 14:45:46;;;;;;;;;;;;;;;;;;4420614;32;20299;-71
2023/02/07 14:48:11;;;;;;;;;;;;;;;;;;4420976;32;19933;-71
2023/02/07 14:50:36;;;;;;;;;;;;;;;;;;4421663;32;20431;-72
2023/02/07 14:53:03;;;;;;;;;;;;;;;;;;4420270;32;20021;-70
2023/02/07 14:55:28;;;;;;;;;;;;;;;;;;4420658;32;20021;-72
2023/02/07 14:57:53;;;;;;;;;;;;;;;;;;4419434;32;19941;-72
2023/02/07 15:00:18;;;;;;;;;;;;;;;;;;4420459;32;19937;-72
2023/02/07 15:02:43;;;;;;;;;;;;;;;;;;4420476;32;19948;-71
2023/02/07 15:05:09;;;;;;;;;;;;;;;;;;4422180;32;19933;-71
2023/02/07 15:07:35;;;;;;;;;;;;;;;;;;4420189;32;19933;-71
2023/02/07 15:10:00;;;;;;;;;;;;;;;;;;4420126;32;19959;-70
2023/02/07 15:12:25;;;;;;;;;;;;;;;;;;4409619;32;19948;-71
2023/02/07 15:14:50;;;;;;;;;;;;;;;;;;4406269;32;19937;-71
2023/02/07 15:17:15;;;;;;;;;;;;;;;;;;4419327;32;19945;-72
2023/02/07 15:19:40;;;;;;;;;;;;;;;;;;4424060;32;19981;-72
2023/02/07 15:22:05;;;;;;;;;;;;;;;;;;4423243;32;19933;-72
2023/02/07 15:24:30;;;;;;;;;;;;;;;;;;4413515;32;19957;-71
2023/02/07 15:26:56;;;;;;;;;;;;;;;;;;4408746;32;19949;-72
2023/02/07 15:29:22;;;;;;;;;;;;;;;;;;4409031;32;19933;-71
2023/02/07 15:31:47;;;;;;;;;;;;;;;;;;4423280;32;19945;-71
2023/02/07 15:34:12;;;;;;;;;;;;;;;;;;4424046;32;19933;-71
2023/02/07 15:36:37;;;;;;;;;;;;;;;;;;4416842;32;20127;-71
2023/02/07 15:39:02;;;;;;;;;;;;;;;;;;4408148;32;19933;-70
2023/02/07 15:41:27;;;;;;;;;;;;;;;;;;4409249;32;19996;-69
2023/02/07 15:43:53;;;;;;;;;;;;;;;;;;4408291;32;19933;-70
2023/02/07 15:46:18;;;;;;;;;;;;;;;;;;4407954;32;19993;-71
2023/02/07 15:48:43;;;;;;;;;;;;;;;;;;4408596;32;19944;-70
2023/02/07 15:51:08;;;;;;;;;;;;;;;;;;4407687;32;20292;-70
2023/02/07 15:53:33;;;;;;;;;;;;;;;;;;4409189;32;19982;-70
2023/02/07 15:55:58;;;;;;;;;;;;;;;;;;4407926;32;19969;-71
2023/02/07 15:58:23;;;;;;;;;;;;;;;;;;4408052;32;19986;-70
2023/02/07 16:00:51;;;;;;;;;;;;;;;;;;4419021;32;20299;-70
2023/02/07 16:03:16;;;;;;;;;;;;;;;;;;4423315;32;19938;-70
2023/02/07 16:05:41;;;;;;;;;;;;;;;;;;4423579;32;19948;-71
2023/02/07 16:08:07;;;;;;;;;;;;;;;;;;4421416;32;19941;-70
2023/02/07 16:10:33;;;;;;;;;;;;;;;;;;4423408;32;19941;-70
2023/02/07 16:12:58;;;;;;;;;;;;;;;;;;4421681;32;20235;-70
2023/02/07 16:15:23;;;;;;;;;;;;;;;;;;4422420;32;19949;-71
2023/02/07 16:17:48;;;;;;;;;;;;;;;;;;4421817;32;19933;-71
2023/02/07 16:20:13;;;;;;;;;;;;;;;;;;4409748;32;19933;-70
2023/02/07 16:22:38;;;;;;;;;;;;;;;;;;4407469;32;19937;-71
2023/02/07 16:25:04;;;;;;;;;;;;;;;;;;4419286;32;20337;-71
2023/02/07 16:27:30;;;;;;;;;;;;;;;;;;4423044;32;19941;-71
2023/02/07 16:29:55;;;;;;;;;;;;;;;;;;4420663;32;19937;-72
2023/02/07 16:32:20;;;;;;;;;;;;;;;;;;4421807;32;19966;-71
2023/02/07 16:34:46;;;;;;;;;;;;;;;;;;4420462;32;19945;-71